sensor_id;sensor_type;location;lat;lon;timestamp;temperature;humidity
71436;SHT31;59251;51.326;12.370;2022-10-18T00:02:07;15.29;93.20
71436;SHT31;59251;51.326;12.370;2022-10-18T00:04:33;15.25;93.39
71436;SHT31;59251;51.326;12.370;2022-10-18T00:06:58;15.24;93.50
71436;SHT31;59251;51.326;12.370;2022-10-18T00:09:24;15.12;93.74
71436;SHT31;59251;51.326;12.370;2022-10-18T00:11:51;15.11;93.64
71436;SHT31;59251;51.326;12.370;2022-10-18T00:14:16;15.20;93.52
71436;SHT31;59251;51.326;12.370;2022-10-18T00:16:42;15.12;93.52
71436;SHT31;59251;51.326;12.370;2022-10-18T00:19:07;14.97;94.08
71436;SHT31;59251;51.326;12.370;2022-10-18T00:21:33;14.91;94.31
71436;SHT31;59251;51.326;12.370;2022-10-18T00:23:58;14.90;94.51
71436;SHT31;59251;51.326;12.370;2022-10-18T00:26:26;14.87;94.55
71436;SHT31;59251;51.326;12.370;2022-10-18T00:28:54;14.94;94.42
71436;SHT31;59251;51.326;12.370;2022-10-18T00:31:32;14.73;95.17
71436;SHT31;59251;51.326;12.370;2022-10-18T00:33:59;14.91;94.67
71436;SHT31;59251;51.326;12.370;2022-10-18T00:36:27;14.74;95.12
71436;SHT31;59251;51.326;12.370;2022-10-18T00:38:53;14.83;94.94
71436;SHT31;59251;51.326;12.370;2022-10-18T00:41:23;14.81;94.94
71436;SHT31;59251;51.326;12.370;2022-10-18T00:46:42;15.10;93.92
71436;SHT31;59251;51.326;12.370;2022-10-18T00:49:14;15.21;93.51
71436;SHT31;59251;51.326;12.370;2022-10-18T00:52:14;15.29;93.37
71436;SHT31;59251;51.326;12.370;2022-10-18T00:54:43;15.20;93.56
71436;SHT31;59251;51.326;12.370;2022-10-18T00:57:10;15.02;93.95
71436;SHT31;59251;51.326;12.370;2022-10-18T00:59:37;14.60;95.48
71436;SHT31;59251;51.326;12.370;2022-10-18T01:02:03;14.85;94.89
71436;SHT31;59251;51.326;12.370;2022-10-18T01:04:28;14.85;95.07
71436;SHT31;59251;51.326;12.370;2022-10-18T01:10:23;14.98;94.10
71436;SHT31;59251;51.326;12.370;2022-10-18T01:13:15;14.97;94.34
71436;SHT31;59251;51.326;12.370;2022-10-18T01:21:34;14.73;94.97
71436;SHT31;59251;51.326;12.370;2022-10-18T01:29:36;14.88;94.56
71436;SHT31;59251;51.326;12.370;2022-10-18T01:32:11;14.63;95.23
71436;SHT31;59251;51.326;12.370;2022-10-18T01:34:41;14.55;95.86
71436;SHT31;59251;51.326;12.370;2022-10-18T01:37:11;14.70;95.27
71436;SHT31;59251;51.326;12.370;2022-10-18T01:39:39;14.90;94.39
71436;SHT31;59251;51.326;12.370;2022-10-18T01:42:09;14.70;94.90
71436;SHT31;59251;51.326;12.370;2022-10-18T01:44:38;14.74;95.01
71436;SHT31;59251;51.326;12.370;2022-10-18T01:47:06;14.80;94.88
71436;SHT31;59251;51.326;12.370;2022-10-18T01:49:33;14.94;94.18
71436;SHT31;59251;51.326;12.370;2022-10-18T01:51:59;14.87;94.61
71436;SHT31;59251;51.326;12.370;2022-10-18T01:54:31;14.97;94.28
71436;SHT31;59251;51.326;12.370;2022-10-18T01:57:05;14.73;94.96
71436;SHT31;59251;51.326;12.370;2022-10-18T02:02:50;14.83;94.45
71436;SHT31;59251;51.326;12.370;2022-10-18T02:05:32;14.81;95.62
71436;SHT31;59251;51.326;12.370;2022-10-18T02:10:27;14.93;94.65
71436;SHT31;59251;51.326;12.370;2022-10-18T02:12:55;14.83;94.94
71436;SHT31;59251;51.326;12.370;2022-10-18T02:15:28;14.90;94.78
71436;SHT31;59251;51.326;12.370;2022-10-18T02:17:54;14.77;95.36
71436;SHT31;59251;51.326;12.370;2022-10-18T02:20:21;14.83;95.47
71436;SHT31;59251;51.326;12.370;2022-10-18T02:22:49;14.84;94.97
71436;SHT31;59251;51.326;12.370;2022-10-18T02:25:21;14.76;94.88
71436;SHT31;59251;51.326;12.370;2022-10-18T02:27:48;14.83;95.20
71436;SHT31;59251;51.326;12.370;2022-10-18T02:30:14;14.83;95.12
71436;SHT31;59251;51.326;12.370;2022-10-18T02:32:45;14.73;95.61
71436;SHT31;59251;51.326;12.370;2022-10-18T02:35:19;14.70;95.74
71436;SHT31;59251;51.326;12.370;2022-10-18T02:37:46;14.73;95.49
71436;SHT31;59251;51.326;12.370;2022-10-18T02:40:14;14.66;95.91
71436;SHT31;59251;51.326;12.370;2022-10-18T02:42:49;14.70;95.98
71436;SHT31;59251;51.326;12.370;2022-10-18T02:45:15;14.83;95.45
71436;SHT31;59251;51.326;12.370;2022-10-18T02:47:41;14.83;95.06
71436;SHT31;59251;51.326;12.370;2022-10-18T02:50:07;14.64;96.36
71436;SHT31;59251;51.326;12.370;2022-10-18T02:52:32;14.74;95.95
71436;SHT31;59251;51.326;12.370;2022-10-18T02:54:58;14.80;95.74
71436;SHT31;59251;51.326;12.370;2022-10-18T02:57:23;14.80;95.86
71436;SHT31;59251;51.326;12.370;2022-10-18T02:59:48;14.77;95.78
71436;SHT31;59251;51.326;12.370;2022-10-18T03:02:14;14.97;95.25
71436;SHT31;59251;51.326;12.370;2022-10-18T03:04:39;14.90;95.55
71436;SHT31;59251;51.326;12.370;2022-10-18T03:07:05;14.85;95.73
71436;SHT31;59251;51.326;12.370;2022-10-18T03:09:30;14.90;95.57
71436;SHT31;59251;51.326;12.370;2022-10-18T03:11:56;14.98;95.15
71436;SHT31;59251;51.326;12.370;2022-10-18T03:14:21;15.01;95.41
71436;SHT31;59251;51.326;12.370;2022-10-18T03:16:47;14.98;95.37
71436;SHT31;59251;51.326;12.370;2022-10-18T03:19:12;14.98;95.36
71436;SHT31;59251;51.326;12.370;2022-10-18T03:21:37;14.85;95.50
71436;SHT31;59251;51.326;12.370;2022-10-18T03:24:03;14.90;96.06
71436;SHT31;59251;51.326;12.370;2022-10-18T03:26:28;14.98;95.60
71436;SHT31;59251;51.326;12.370;2022-10-18T03:28:54;15.08;94.68
71436;SHT31;59251;51.326;12.370;2022-10-18T03:31:19;15.24;94.57
71436;SHT31;59251;51.326;12.370;2022-10-18T03:33:45;15.18;94.66
71436;SHT31;59251;51.326;12.370;2022-10-18T03:36:10;15.25;94.73
71436;SHT31;59251;51.326;12.370;2022-10-18T03:38:36;15.22;94.67
71436;SHT31;59251;51.326;12.370;2022-10-18T03:41:02;15.25;94.83
71436;SHT31;59251;51.326;12.370;2022-10-18T03:43:27;15.27;94.77
71436;SHT31;59251;51.326;12.370;2022-10-18T03:45:53;15.22;94.88
71436;SHT31;59251;51.326;12.370;2022-10-18T03:48:18;15.42;94.30
71436;SHT31;59251;51.326;12.370;2022-10-18T03:50:43;15.46;94.20
71436;SHT31;59251;51.326;12.370;2022-10-18T03:53:09;15.46;94.41
71436;SHT31;59251;51.326;12.370;2022-10-18T03:55:36;15.48;94.38
71436;SHT31;59251;51.326;12.370;2022-10-18T03:58:01;15.24;95.10
71436;SHT31;59251;51.326;12.370;2022-10-18T04:00:26;15.24;95.14
71436;SHT31;59251;51.326;12.370;2022-10-18T04:02:52;15.35;94.73
71436;SHT31;59251;51.326;12.370;2022-10-18T04:05:17;15.38;94.73
71436;SHT31;59251;51.326;12.370;2022-10-18T04:07:43;15.43;94.46
71436;SHT31;59251;51.326;12.370;2022-10-18T04:10:08;15.46;94.28
71436;SHT31;59251;51.326;12.370;2022-10-18T04:12:33;15.34;94.85
71436;SHT31;59251;51.326;12.370;2022-10-18T04:14:59;15.45;94.41
71436;SHT31;59251;51.326;12.370;2022-10-18T04:17:24;15.49;94.23
71436;SHT31;59251;51.326;12.370;2022-10-18T04:19:49;15.53;94.34
71436;SHT31;59251;51.326;12.370;2022-10-18T04:22:15;15.48;94.55
71436;SHT31;59251;51.326;12.370;2022-10-18T04:24:40;15.34;95.14
71436;SHT31;59251;51.326;12.370;2022-10-18T04:27:06;15.43;94.76
71436;SHT31;59251;51.326;12.370;2022-10-18T04:29:32;15.46;94.76
71436;SHT31;59251;51.326;12.370;2022-10-18T04:31:57;15.48;94.54
71436;SHT31;59251;51.326;12.370;2022-10-18T04:34:23;15.52;94.52
71436;SHT31;59251;51.326;12.370;2022-10-18T04:36:48;15.58;94.35
71436;SHT31;59251;51.326;12.370;2022-10-18T04:39:13;15.73;93.92
71436;SHT31;59251;51.326;12.370;2022-10-18T04:41:39;15.69;94.05
71436;SHT31;59251;51.326;12.370;2022-10-18T04:44:04;15.59;94.36
71436;SHT31;59251;51.326;12.370;2022-10-18T04:46:30;15.58;94.41
71436;SHT31;59251;51.326;12.370;2022-10-18T04:48:55;15.62;94.34
71436;SHT31;59251;51.326;12.370;2022-10-18T04:51:21;15.58;94.63
71436;SHT31;59251;51.326;12.370;2022-10-18T04:53:46;15.46;95.35
71436;SHT31;59251;51.326;12.370;2022-10-18T04:56:11;15.39;95.84
71436;SHT31;59251;51.326;12.370;2022-10-18T04:58:37;15.36;96.02
71436;SHT31;59251;51.326;12.370;2022-10-18T05:01:06;15.25;96.75
71436;SHT31;59251;51.326;12.370;2022-10-18T05:03:32;15.29;96.78
71436;SHT31;59251;51.326;12.370;2022-10-18T05:05:57;15.31;96.80
71436;SHT31;59251;51.326;12.370;2022-10-18T05:08:22;15.25;96.74
71436;SHT31;59251;51.326;12.370;2022-10-18T05:10:48;15.11;97.68
71436;SHT31;59251;51.326;12.370;2022-10-18T05:13:13;15.18;97.86
71436;SHT31;59251;51.326;12.370;2022-10-18T05:15:38;15.31;97.66
71436;SHT31;59251;51.326;12.370;2022-10-18T05:18:04;15.36;97.14
71436;SHT31;59251;51.326;12.370;2022-10-18T05:20:29;15.49;96.35
71436;SHT31;59251;51.326;12.370;2022-10-18T05:22:56;15.56;96.42
71436;SHT31;59251;51.326;12.370;2022-10-18T05:25:21;15.41;97.36
71436;SHT31;59251;51.326;12.370;2022-10-18T05:27:47;15.48;96.71
71436;SHT31;59251;51.326;12.370;2022-10-18T05:30:12;15.32;97.69
71436;SHT31;59251;51.326;12.370;2022-10-18T05:32:37;15.25;98.25
71436;SHT31;59251;51.326;12.370;2022-10-18T05:35:03;15.25;98.17
71436;SHT31;59251;51.326;12.370;2022-10-18T05:37:28;15.25;98.58
71436;SHT31;59251;51.326;12.370;2022-10-18T05:39:54;15.15;98.89
71436;SHT31;59251;51.326;12.370;2022-10-18T05:42:19;15.20;98.71
71436;SHT31;59251;51.326;12.370;2022-10-18T05:44:45;15.24;98.36
71436;SHT31;59251;51.326;12.370;2022-10-18T05:47:10;15.22;98.97
71436;SHT31;59251;51.326;12.370;2022-10-18T05:49:36;15.20;98.76
71436;SHT31;59251;51.326;12.370;2022-10-18T05:52:01;15.27;98.72
71436;SHT31;59251;51.326;12.370;2022-10-18T05:54:26;15.24;99.01
71436;SHT31;59251;51.326;12.370;2022-10-18T05:56:52;15.14;99.16
71436;SHT31;59251;51.326;12.370;2022-10-18T05:59:17;15.12;99.41
71436;SHT31;59251;51.326;12.370;2022-10-18T06:01:43;15.14;99.38
71436;SHT31;59251;51.326;12.370;2022-10-18T06:04:09;15.18;99.39
71436;SHT31;59251;51.326;12.370;2022-10-18T06:06:35;15.21;99.67
71436;SHT31;59251;51.326;12.370;2022-10-18T06:09:00;15.25;99.33
71436;SHT31;59251;51.326;12.370;2022-10-18T06:11:28;15.32;99.30
71436;SHT31;59251;51.326;12.370;2022-10-18T06:13:53;15.55;99.31
71436;SHT31;59251;51.326;12.370;2022-10-18T06:16:20;15.65;99.12
71436;SHT31;59251;51.326;12.370;2022-10-18T06:18:47;15.73;98.82
71436;SHT31;59251;51.326;12.370;2022-10-18T06:21:14;15.96;98.14
71436;SHT31;59251;51.326;12.370;2022-10-18T06:23:40;16.01;98.19
71436;SHT31;59251;51.326;12.370;2022-10-18T06:26:07;16.14;97.19
71436;SHT31;59251;51.326;12.370;2022-10-18T06:28:33;16.06;97.92
71436;SHT31;59251;51.326;12.370;2022-10-18T06:30:59;16.04;97.93
71436;SHT31;59251;51.326;12.370;2022-10-18T06:33:25;15.94;97.91
71436;SHT31;59251;51.326;12.370;2022-10-18T06:36:03;16.00;98.12
71436;SHT31;59251;51.326;12.370;2022-10-18T06:38:29;16.14;97.53
71436;SHT31;59251;51.326;12.370;2022-10-18T06:40:55;16.24;96.94
71436;SHT31;59251;51.326;12.370;2022-10-18T06:43:21;16.22;96.37
71436;SHT31;59251;51.326;12.370;2022-10-18T06:45:47;16.21;95.70
71436;SHT31;59251;51.326;12.370;2022-10-18T06:48:13;16.21;95.71
71436;SHT31;59251;51.326;12.370;2022-10-18T06:50:38;16.17;95.76
71436;SHT31;59251;51.326;12.370;2022-10-18T06:53:03;16.18;95.88
71436;SHT31;59251;51.326;12.370;2022-10-18T06:55:30;16.20;95.73
71436;SHT31;59251;51.326;12.370;2022-10-18T06:57:56;16.20;96.10
71436;SHT31;59251;51.326;12.370;2022-10-18T07:00:22;16.18;96.17
71436;SHT31;59251;51.326;12.370;2022-10-18T07:02:47;16.18;96.27
71436;SHT31;59251;51.326;12.370;2022-10-18T07:05:12;16.22;95.90
71436;SHT31;59251;51.326;12.370;2022-10-18T07:07:38;16.17;96.60
71436;SHT31;59251;51.326;12.370;2022-10-18T07:10:04;16.17;96.34
71436;SHT31;59251;51.326;12.370;2022-10-18T07:12:30;16.16;96.51
71436;SHT31;59251;51.326;12.370;2022-10-18T07:14:55;16.17;96.61
71436;SHT31;59251;51.326;12.370;2022-10-18T07:17:21;16.11;96.71
71436;SHT31;59251;51.326;12.370;2022-10-18T07:19:46;16.27;96.58
71436;SHT31;59251;51.326;12.370;2022-10-18T07:22:11;16.20;96.54
71436;SHT31;59251;51.326;12.370;2022-10-18T07:24:37;16.20;96.49
71436;SHT31;59251;51.326;12.370;2022-10-18T07:27:02;16.10;97.11
71436;SHT31;59251;51.326;12.370;2022-10-18T07:29:28;16.06;97.09
71436;SHT31;59251;51.326;12.370;2022-10-18T07:31:53;16.08;97.22
71436;SHT31;59251;51.326;12.370;2022-10-18T07:34:18;16.13;97.26
71436;SHT31;59251;51.326;12.370;2022-10-18T07:36:44;16.13;97.21
71436;SHT31;59251;51.326;12.370;2022-10-18T07:39:09;16.13;97.28
71436;SHT31;59251;51.326;12.370;2022-10-18T07:41:35;16.28;96.67
71436;SHT31;59251;51.326;12.370;2022-10-18T07:44:02;16.32;96.15
71436;SHT31;59251;51.326;12.370;2022-10-18T07:46:27;16.34;95.90
71436;SHT31;59251;51.326;12.370;2022-10-18T07:48:53;16.31;96.46
71436;SHT31;59251;51.326;12.370;2022-10-18T07:51:19;16.10;97.98
71436;SHT31;59251;51.326;12.370;2022-10-18T07:53:45;15.83;99.33
71436;SHT31;59251;51.326;12.370;2022-10-18T07:56:13;15.62;99.99
71436;SHT31;59251;51.326;12.370;2022-10-18T07:58:45;15.66;99.99
71436;SHT31;59251;51.326;12.370;2022-10-18T08:01:12;15.62;99.99
71436;SHT31;59251;51.326;12.370;2022-10-18T08:03:40;15.55;99.99
71436;SHT31;59251;51.326;12.370;2022-10-18T08:06:07;15.22;99.99
71436;SHT31;59251;51.326;12.370;2022-10-18T08:08:34;15.20;99.99
71436;SHT31;59251;51.326;12.370;2022-10-18T08:11:12;15.08;99.99
71436;SHT31;59251;51.326;12.370;2022-10-18T08:13:39;15.01;99.99
71436;SHT31;59251;51.326;12.370;2022-10-18T08:16:08;14.98;99.99
71436;SHT31;59251;51.326;12.370;2022-10-18T08:18:34;14.88;99.99
71436;SHT31;59251;51.326;12.370;2022-10-18T08:21:00;14.97;99.99
71436;SHT31;59251;51.326;12.370;2022-10-18T08:23:26;15.04;99.99
71436;SHT31;59251;51.326;12.370;2022-10-18T08:25:52;15.08;99.99
71436;SHT31;59251;51.326;12.370;2022-10-18T08:28:17;15.14;99.99
71436;SHT31;59251;51.326;12.370;2022-10-18T08:30:42;15.15;99.99
71436;SHT31;59251;51.326;12.370;2022-10-18T08:33:08;15.10;99.99
71436;SHT31;59251;51.326;12.370;2022-10-18T08:35:33;15.08;99.99
71436;SHT31;59251;51.326;12.370;2022-10-18T08:37:59;15.02;99.99
71436;SHT31;59251;51.326;12.370;2022-10-18T08:40:24;14.95;99.99
71436;SHT31;59251;51.326;12.370;2022-10-18T08:45:29;14.95;99.99
71436;SHT31;59251;51.326;12.370;2022-10-18T08:47:57;14.91;99.99
71436;SHT31;59251;51.326;12.370;2022-10-18T08:50:26;14.84;99.99
71436;SHT31;59251;51.326;12.370;2022-10-18T08:53:21;14.84;99.99
71436;SHT31;59251;51.326;12.370;2022-10-18T08:56:06;14.79;99.99
71436;SHT31;59251;51.326;12.370;2022-10-18T08:58:40;14.80;99.99
71436;SHT31;59251;51.326;12.370;2022-10-18T09:09:37;14.77;99.99
71436;SHT31;59251;51.326;12.370;2022-10-18T09:12:30;14.84;99.99
71436;SHT31;59251;51.326;12.370;2022-10-18T09:15:11;14.80;99.99
71436;SHT31;59251;51.326;12.370;2022-10-18T09:25:18;14.80;99.99
71436;SHT31;59251;51.326;12.370;2022-10-18T09:36:04;14.81;99.99
71436;SHT31;59251;51.326;12.370;2022-10-18T09:38:42;14.81;99.99
71436;SHT31;59251;51.326;12.370;2022-10-18T09:41:14;14.79;99.99
71436;SHT31;59251;51.326;12.370;2022-10-18T09:43:56;14.91;99.99
71436;SHT31;59251;51.326;12.370;2022-10-18T09:46:26;14.84;99.99
71436;SHT31;59251;51.326;12.370;2022-10-18T09:49:02;14.87;99.99
71436;SHT31;59251;51.326;12.370;2022-10-18T09:51:37;14.81;99.99
71436;SHT31;59251;51.326;12.370;2022-10-18T09:59:02;14.87;99.99
71436;SHT31;59251;51.326;12.370;2022-10-18T10:01:29;15.10;99.99
71436;SHT31;59251;51.326;12.370;2022-10-18T10:03:55;15.04;99.99
71436;SHT31;59251;51.326;12.370;2022-10-18T10:06:29;15.11;99.99
71436;SHT31;59251;51.326;12.370;2022-10-18T10:09:14;15.12;99.99
71436;SHT31;59251;51.326;12.370;2022-10-18T10:11:46;15.08;99.99
71436;SHT31;59251;51.326;12.370;2022-10-18T10:14:12;15.04;99.99
71436;SHT31;59251;51.326;12.370;2022-10-18T10:16:49;15.12;99.99
71436;SHT31;59251;51.326;12.370;2022-10-18T10:19:31;15.12;99.99
71436;SHT31;59251;51.326;12.370;2022-10-18T10:22:08;15.17;99.99
71436;SHT31;59251;51.326;12.370;2022-10-18T10:24:47;15.29;99.99
71436;SHT31;59251;51.326;12.370;2022-10-18T10:27:32;15.12;99.99
71436;SHT31;59251;51.326;12.370;2022-10-18T10:30:00;15.32;99.99
71436;SHT31;59251;51.326;12.370;2022-10-18T10:32:29;15.32;99.99
71436;SHT31;59251;51.326;12.370;2022-10-18T10:34:55;15.28;99.99
71436;SHT31;59251;51.326;12.370;2022-10-18T10:37:32;15.41;99.99
71436;SHT31;59251;51.326;12.370;2022-10-18T10:40:20;15.31;99.95
71436;SHT31;59251;51.326;12.370;2022-10-18T10:45:19;15.38;99.99
71436;SHT31;59251;51.326;12.370;2022-10-18T10:47:45;15.45;99.73
71436;SHT31;59251;51.326;12.370;2022-10-18T10:50:11;15.50;99.88
71436;SHT31;59251;51.326;12.370;2022-10-18T10:52:38;15.66;99.69
71436;SHT31;59251;51.326;12.370;2022-10-18T10:55:17;15.85;99.99
71436;SHT31;59251;51.326;12.370;2022-10-18T10:57:48;15.69;99.34
71436;SHT31;59251;51.326;12.370;2022-10-18T11:03:21;15.85;99.99
71436;SHT31;59251;51.326;12.370;2022-10-18T11:05:57;15.87;99.92
71436;SHT31;59251;51.326;12.370;2022-10-18T11:08:27;15.83;99.71
71436;SHT31;59251;51.326;12.370;2022-10-18T11:11:02;15.85;99.67
71436;SHT31;59251;51.326;12.370;2022-10-18T11:13:38;15.89;99.99
71436;SHT31;59251;51.326;12.370;2022-10-18T11:16:13;15.70;99.14
71436;SHT31;59251;51.326;12.370;2022-10-18T11:18:42;15.74;99.12
71436;SHT31;59251;51.326;12.370;2022-10-18T11:21:18;15.80;99.56
71436;SHT31;59251;51.326;12.370;2022-10-18T11:23:47;15.87;99.69
71436;SHT31;59251;51.326;12.370;2022-10-18T11:29:37;16.06;99.99
71436;SHT31;59251;51.326;12.370;2022-10-18T11:34:47;16.21;99.74
71436;SHT31;59251;51.326;12.370;2022-10-18T12:01:43;15.59;99.85
71436;SHT31;59251;51.326;12.370;2022-10-18T12:04:20;15.58;99.99
71436;SHT31;59251;51.326;12.370;2022-10-18T12:06:50;15.46;99.99
71436;SHT31;59251;51.326;12.370;2022-10-18T12:09:24;15.53;99.99
71436;SHT31;59251;51.326;12.370;2022-10-18T12:12:00;15.63;99.99
71436;SHT31;59251;51.326;12.370;2022-10-18T12:14:40;15.90;99.99
71436;SHT31;59251;51.326;12.370;2022-10-18T12:17:17;15.73;99.99
71436;SHT31;59251;51.326;12.370;2022-10-18T12:19:44;15.80;99.99
71436;SHT31;59251;51.326;12.370;2022-10-18T12:22:37;15.58;99.99
71436;SHT31;59251;51.326;12.370;2022-10-18T12:25:10;15.45;99.99
71436;SHT31;59251;51.326;12.370;2022-10-18T12:27:45;15.45;99.99
71436;SHT31;59251;51.326;12.370;2022-10-18T12:32:47;15.59;99.99
71436;SHT31;59251;51.326;12.370;2022-10-18T12:35:15;15.52;99.99
71436;SHT31;59251;51.326;12.370;2022-10-18T12:37:53;15.87;99.99
71436;SHT31;59251;51.326;12.370;2022-10-18T12:43:23;15.62;99.99
71436;SHT31;59251;51.326;12.370;2022-10-18T12:45:56;15.66;99.99
71436;SHT31;59251;51.326;12.370;2022-10-18T12:48:30;16.11;99.44
71436;SHT31;59251;51.326;12.370;2022-10-18T12:58:51;16.59;96.18
71436;SHT31;59251;51.326;12.370;2022-10-18T13:01:17;16.27;96.93
71436;SHT31;59251;51.326;12.370;2022-10-18T13:03:54;16.55;97.53
71436;SHT31;59251;51.326;12.370;2022-10-18T13:06:20;16.45;98.26
71436;SHT31;59251;51.326;12.370;2022-10-18T13:08:46;16.22;96.52
71436;SHT31;59251;51.326;12.370;2022-10-18T13:11:26;16.34;97.51
71436;SHT31;59251;51.326;12.370;2022-10-18T13:16:48;17.41;94.39
71436;SHT31;59251;51.326;12.370;2022-10-18T13:19:27;16.84;94.23
71436;SHT31;59251;51.326;12.370;2022-10-18T13:22:27;16.49;95.28
71436;SHT31;59251;51.326;12.370;2022-10-18T13:25:12;16.31;95.99
71436;SHT31;59251;51.326;12.370;2022-10-18T13:41:22;16.34;97.52
71436;SHT31;59251;51.326;12.370;2022-10-18T13:52:36;16.44;95.99
71436;SHT31;59251;51.326;12.370;2022-10-18T14:00:34;16.68;96.62
71436;SHT31;59251;51.326;12.370;2022-10-18T14:06:08;16.58;95.92
71436;SHT31;59251;51.326;12.370;2022-10-18T14:08:40;16.52;95.88
71436;SHT31;59251;51.326;12.370;2022-10-18T14:14:07;16.69;95.45
71436;SHT31;59251;51.326;12.370;2022-10-18T14:16:57;16.66;95.38
71436;SHT31;59251;51.326;12.370;2022-10-18T14:19:32;16.45;95.67
71436;SHT31;59251;51.326;12.370;2022-10-18T14:22:21;16.45;95.92
71436;SHT31;59251;51.326;12.370;2022-10-18T14:24:50;16.58;95.16
71436;SHT31;59251;51.326;12.370;2022-10-18T14:27:21;16.55;96.00
71436;SHT31;59251;51.326;12.370;2022-10-18T14:29:49;16.75;96.37
71436;SHT31;59251;51.326;12.370;2022-10-18T14:32:25;17.04;94.43
71436;SHT31;59251;51.326;12.370;2022-10-18T14:34:51;17.10;94.16
71436;SHT31;59251;51.326;12.370;2022-10-18T14:37:29;17.00;94.43
71436;SHT31;59251;51.326;12.370;2022-10-18T14:39:57;16.66;95.15
71436;SHT31;59251;51.326;12.370;2022-10-18T14:42:24;16.52;95.30
71436;SHT31;59251;51.326;12.370;2022-10-18T14:44:51;16.62;96.41
71436;SHT31;59251;51.326;12.370;2022-10-18T14:47:20;16.93;94.36
71436;SHT31;59251;51.326;12.370;2022-10-18T14:49:46;17.03;94.56
71436;SHT31;59251;51.326;12.370;2022-10-18T14:52:18;16.84;95.65
71436;SHT31;59251;51.326;12.370;2022-10-18T14:54:45;16.75;95.86
71436;SHT31;59251;51.326;12.370;2022-10-18T14:57:29;16.76;94.68
71436;SHT31;59251;51.326;12.370;2022-10-18T15:00:00;16.84;94.80
71436;SHT31;59251;51.326;12.370;2022-10-18T15:02:33;16.93;94.28
71436;SHT31;59251;51.326;12.370;2022-10-18T15:05:04;16.77;94.57
71436;SHT31;59251;51.326;12.370;2022-10-18T15:07:31;16.94;94.86
71436;SHT31;59251;51.326;12.370;2022-10-18T15:09:58;17.06;94.52
71436;SHT31;59251;51.326;12.370;2022-10-18T15:12:25;16.47;95.68
71436;SHT31;59251;51.326;12.370;2022-10-18T15:14:52;16.36;96.29
71436;SHT31;59251;51.326;12.370;2022-10-18T15:17:30;16.47;95.94
71436;SHT31;59251;51.326;12.370;2022-10-18T15:22:28;16.72;95.63
71436;SHT31;59251;51.326;12.370;2022-10-18T15:25:17;16.61;95.75
71436;SHT31;59251;51.326;12.370;2022-10-18T15:27:51;16.72;95.41
71436;SHT31;59251;51.326;12.370;2022-10-18T15:30:29;16.77;95.53
71436;SHT31;59251;51.326;12.370;2022-10-18T15:33:02;16.58;95.90
71436;SHT31;59251;51.326;12.370;2022-10-18T15:35:30;16.64;95.37
71436;SHT31;59251;51.326;12.370;2022-10-18T15:38:02;16.54;95.90
71436;SHT31;59251;51.326;12.370;2022-10-18T15:43:05;16.38;96.69
71436;SHT31;59251;51.326;12.370;2022-10-18T15:45:34;16.35;96.69
71436;SHT31;59251;51.326;12.370;2022-10-18T15:50:40;16.03;98.13
71436;SHT31;59251;51.326;12.370;2022-10-18T15:55:46;15.89;98.90
71436;SHT31;59251;51.326;12.370;2022-10-18T15:58:18;15.97;98.97
71436;SHT31;59251;51.326;12.370;2022-10-18T16:00:45;15.87;99.07
71436;SHT31;59251;51.326;12.370;2022-10-18T16:03:12;15.79;99.18
71436;SHT31;59251;51.326;12.370;2022-10-18T16:05:38;15.89;99.26
71436;SHT31;59251;51.326;12.370;2022-10-18T16:08:04;16.03;98.43
71436;SHT31;59251;51.326;12.370;2022-10-18T16:10:29;16.06;98.21
71436;SHT31;59251;51.326;12.370;2022-10-18T16:12:55;15.82;98.85
71436;SHT31;59251;51.326;12.370;2022-10-18T16:15:20;15.86;99.13
71436;SHT31;59251;51.326;12.370;2022-10-18T16:17:46;15.69;99.47
71436;SHT31;59251;51.326;12.370;2022-10-18T16:20:23;15.67;99.55
71436;SHT31;59251;51.326;12.370;2022-10-18T16:22:49;15.67;99.58
71436;SHT31;59251;51.326;12.370;2022-10-18T16:25:15;15.63;99.45
71436;SHT31;59251;51.326;12.370;2022-10-18T16:27:40;15.65;99.18
71436;SHT31;59251;51.326;12.370;2022-10-18T16:30:12;15.36;99.99
71436;SHT31;59251;51.326;12.370;2022-10-18T16:32:38;15.32;99.99
71436;SHT31;59251;51.326;12.370;2022-10-18T16:35:05;15.21;99.99
71436;SHT31;59251;51.326;12.370;2022-10-18T16:37:31;15.34;99.99
71436;SHT31;59251;51.326;12.370;2022-10-18T16:39:56;15.18;99.99
71436;SHT31;59251;51.326;12.370;2022-10-18T16:42:21;15.35;99.99
71436;SHT31;59251;51.326;12.370;2022-10-18T16:44:47;15.34;99.99
71436;SHT31;59251;51.326;12.370;2022-10-18T16:47:13;15.48;99.99
71436;SHT31;59251;51.326;12.370;2022-10-18T16:49:38;15.41;99.92
71436;SHT31;59251;51.326;12.370;2022-10-18T16:52:04;15.38;99.93
71436;SHT31;59251;51.326;12.370;2022-10-18T16:54:29;15.29;99.99
71436;SHT31;59251;51.326;12.370;2022-10-18T16:56:55;15.34;99.99
71436;SHT31;59251;51.326;12.370;2022-10-18T16:59:26;15.28;99.99
71436;SHT31;59251;51.326;12.370;2022-10-18T17:01:52;15.29;99.99
71436;SHT31;59251;51.326;12.370;2022-10-18T17:04:18;15.20;99.99
71436;SHT31;59251;51.326;12.370;2022-10-18T17:06:43;15.05;99.99
71436;SHT31;59251;51.326;12.370;2022-10-18T17:09:12;15.01;99.99
71436;SHT31;59251;51.326;12.370;2022-10-18T17:11:38;15.07;99.99
71436;SHT31;59251;51.326;12.370;2022-10-18T17:14:03;14.93;99.99
71436;SHT31;59251;51.326;12.370;2022-10-18T17:16:31;14.94;99.99
71436;SHT31;59251;51.326;12.370;2022-10-18T17:18:59;15.00;99.99
71436;SHT31;59251;51.326;12.370;2022-10-18T17:21:26;15.08;99.99
71436;SHT31;59251;51.326;12.370;2022-10-18T17:23:51;15.04;99.97
71436;SHT31;59251;51.326;12.370;2022-10-18T17:26:20;14.97;99.99
71436;SHT31;59251;51.326;12.370;2022-10-18T17:28:49;15.10;99.99
71436;SHT31;59251;51.326;12.370;2022-10-18T17:31:15;15.07;99.99
71436;SHT31;59251;51.326;12.370;2022-10-18T17:33:40;15.15;99.99
71436;SHT31;59251;51.326;12.370;2022-10-18T17:36:06;15.12;99.99
71436;SHT31;59251;51.326;12.370;2022-10-18T17:38:32;15.32;99.65
71436;SHT31;59251;51.326;12.370;2022-10-18T17:40:57;15.21;99.73
71436;SHT31;59251;51.326;12.370;2022-10-18T17:43:23;15.24;99.85
71436;SHT31;59251;51.326;12.370;2022-10-18T17:45:51;15.20;99.61
71436;SHT31;59251;51.326;12.370;2022-10-18T17:48:17;15.29;99.62
71436;SHT31;59251;51.326;12.370;2022-10-18T17:50:43;15.35;99.19
71436;SHT31;59251;51.326;12.370;2022-10-18T17:53:09;15.31;99.38
71436;SHT31;59251;51.326;12.370;2022-10-18T17:55:34;15.27;99.47
71436;SHT31;59251;51.326;12.370;2022-10-18T17:58:00;15.10;99.94